sensor_id;sensor_type;location;lat;lon;timestamp;P1;durP1;ratioP1;P2;durP2;ratioP2
13218;SDS011;6674;49.152;11.918;2022-08-21T00:01:12;3.90;;;3.70;;
13218;SDS011;6674;49.152;11.918;2022-08-21T00:03:44;3.50;;;3.30;;
13218;SDS011;6674;49.152;11.918;2022-08-21T00:06:11;3.37;;;3.17;;
13218;SDS011;6674;49.152;11.918;2022-08-21T00:08:37;3.40;;;3.20;;
13218;SDS011;6674;49.152;11.918;2022-08-21T00:11:04;3.80;;;3.60;;
13218;SDS011;6674;49.152;11.918;2022-08-21T00:13:31;6.10;;;5.63;;
13218;SDS011;6674;49.152;11.918;2022-08-21T00:15:59;6.03;;;5.57;;
13218;SDS011;6674;49.152;11.918;2022-08-21T00:18:26;6.23;;;5.73;;
13218;SDS011;6674;49.152;11.918;2022-08-21T00:20:55;4.67;;;4.37;;
13218;SDS011;6674;49.152;11.918;2022-08-21T00:23:23;3.30;;;3.10;;
13218;SDS011;6674;49.152;11.918;2022-08-21T00:25:50;2.57;;;2.47;;
13218;SDS011;6674;49.152;11.918;2022-08-21T00:28:17;3.50;;;3.30;;
13218;SDS011;6674;49.152;11.918;2022-08-21T00:30:45;4.10;;;3.80;;
13218;SDS011;6674;49.152;11.918;2022-08-21T00:33:12;3.53;;;3.33;;
13218;SDS011;6674;49.152;11.918;2022-08-21T00:35:40;2.67;;;2.57;;
13218;SDS011;6674;49.152;11.918;2022-08-21T00:38:09;2.10;;;2.00;;
13218;SDS011;6674;49.152;11.918;2022-08-21T00:40:38;3.67;;;3.47;;
13218;SDS011;6674;49.152;11.918;2022-08-21T00:43:07;2.97;;;2.77;;
13218;SDS011;6674;49.152;11.918;2022-08-21T00:45:36;3.30;;;3.10;;
13218;SDS011;6674;49.152;11.918;2022-08-21T00:48:04;2.80;;;2.60;;
13218;SDS011;6674;49.152;11.918;2022-08-21T00:50:32;2.40;;;2.30;;
13218;SDS011;6674;49.152;11.918;2022-08-21T00:53:17;2.70;;;2.60;;
13218;SDS011;6674;49.152;11.918;2022-08-21T00:55:44;2.20;;;2.10;;
13218;SDS011;6674;49.152;11.918;2022-08-21T00:58:11;3.03;;;2.83;;
13218;SDS011;6674;49.152;11.918;2022-08-21T01:00:42;3.97;;;3.67;;
13218;SDS011;6674;49.152;11.918;2022-08-21T01:03:11;3.07;;;2.87;;
13218;SDS011;6674;49.152;11.918;2022-08-21T01:05:40;3.30;;;3.10;;
13218;SDS011;6674;49.152;11.918;2022-08-21T01:08:08;2.80;;;2.70;;
13218;SDS011;6674;49.152;11.918;2022-08-21T01:10:37;2.90;;;2.70;;
13218;SDS011;6674;49.152;11.918;2022-08-21T01:13:06;2.93;;;2.73;;
13218;SDS011;6674;49.152;11.918;2022-08-21T01:15:35;2.47;;;2.37;;
13218;SDS011;6674;49.152;11.918;2022-08-21T01:18:05;2.10;;;2.00;;
13218;SDS011;6674;49.152;11.918;2022-08-21T01:20:34;2.37;;;2.27;;
13218;SDS011;6674;49.152;11.918;2022-08-21T01:23:05;2.60;;;2.50;;
13218;SDS011;6674;49.152;11.918;2022-08-21T01:25:32;2.60;;;2.50;;
13218;SDS011;6674;49.152;11.918;2022-08-21T01:28:02;2.40;;;2.30;;
13218;SDS011;6674;49.152;11.918;2022-08-21T01:30:32;2.43;;;2.33;;
13218;SDS011;6674;49.152;11.918;2022-08-21T01:33:01;2.50;;;2.30;;
13218;SDS011;6674;49.152;11.918;2022-08-21T01:35:28;2.03;;;1.93;;
13218;SDS011;6674;49.152;11.918;2022-08-21T01:37:56;2.43;;;2.33;;
13218;SDS011;6674;49.152;11.918;2022-08-21T01:40:24;2.30;;;2.20;;
13218;SDS011;6674;49.152;11.918;2022-08-21T01:42:51;2.20;;;2.10;;
13218;SDS011;6674;49.152;11.918;2022-08-21T01:45:18;2.23;;;2.13;;
13218;SDS011;6674;49.152;11.918;2022-08-21T01:47:45;2.03;;;1.93;;
13218;SDS011;6674;49.152;11.918;2022-08-21T01:50:14;1.87;;;1.80;;
13218;SDS011;6674;49.152;11.918;2022-08-21T01:52:43;2.00;;;1.93;;
13218;SDS011;6674;49.152;11.918;2022-08-21T01:55:10;1.80;;;1.80;;
13218;SDS011;6674;49.152;11.918;2022-08-21T01:57:39;2.10;;;2.00;;
13218;SDS011;6674;49.152;11.918;2022-08-21T02:00:07;1.60;;;1.60;;
13218;SDS011;6674;49.152;11.918;2022-08-21T02:02:36;1.00;;;1.00;;
13218;SDS011;6674;49.152;11.918;2022-08-21T02:05:03;1.47;;;1.47;;
13218;SDS011;6674;49.152;11.918;2022-08-21T02:07:35;1.87;;;1.77;;
13218;SDS011;6674;49.152;11.918;2022-08-21T02:10:02;1.60;;;1.60;;
13218;SDS011;6674;49.152;11.918;2022-08-21T02:12:29;1.40;;;1.40;;
13218;SDS011;6674;49.152;11.918;2022-08-21T02:14:57;1.20;;;1.20;;
13218;SDS011;6674;49.152;11.918;2022-08-21T02:17:24;1.03;;;1.03;;
13218;SDS011;6674;49.152;11.918;2022-08-21T02:19:50;1.07;;;1.07;;
13218;SDS011;6674;49.152;11.918;2022-08-21T02:22:17;1.93;;;1.90;;
13218;SDS011;6674;49.152;11.918;2022-08-21T02:24:43;1.70;;;1.70;;
13218;SDS011;6674;49.152;11.918;2022-08-21T02:27:10;1.13;;;1.13;;
13218;SDS011;6674;49.152;11.918;2022-08-21T02:29:36;0.53;;;0.53;;
13218;SDS011;6674;49.152;11.918;2022-08-21T02:32:04;1.33;;;1.33;;
13218;SDS011;6674;49.152;11.918;2022-08-21T02:34:31;1.40;;;1.40;;
13218;SDS011;6674;49.152;11.918;2022-08-21T02:36:58;1.60;;;1.50;;
13218;SDS011;6674;49.152;11.918;2022-08-21T02:39:24;2.00;;;1.90;;
13218;SDS011;6674;49.152;11.918;2022-08-21T02:41:51;1.57;;;1.50;;
13218;SDS011;6674;49.152;11.918;2022-08-21T02:44:17;1.00;;;1.00;;
13218;SDS011;6674;49.152;11.918;2022-08-21T02:46:44;0.60;;;0.60;;
13218;SDS011;6674;49.152;11.918;2022-08-21T02:49:12;1.30;;;1.30;;
13218;SDS011;6674;49.152;11.918;2022-08-21T02:51:38;2.20;;;2.10;;
13218;SDS011;6674;49.152;11.918;2022-08-21T02:54:05;1.60;;;1.60;;
13218;SDS011;6674;49.152;11.918;2022-08-21T02:56:31;4.47;;;2.20;;
13218;SDS011;6674;49.152;11.918;2022-08-21T02:58:58;251.67;;;11.40;;
13218;SDS011;6674;49.152;11.918;2022-08-21T03:01:25;52.00;;;4.50;;
13218;SDS011;6674;49.152;11.918;2022-08-21T03:03:51;18.57;;;2.87;;
13218;SDS011;6674;49.152;11.918;2022-08-21T03:06:20;1.40;;;1.40;;
13218;SDS011;6674;49.152;11.918;2022-08-21T03:08:49;1.60;;;1.60;;
13218;SDS011;6674;49.152;11.918;2022-08-21T03:11:16;15.70;;;2.63;;
13218;SDS011;6674;49.152;11.918;2022-08-21T03:13:44;1.73;;;1.63;;
13218;SDS011;6674;49.152;11.918;2022-08-21T03:16:10;1.90;;;1.80;;
13218;SDS011;6674;49.152;11.918;2022-08-21T03:18:37;5.53;;;2.30;;
13218;SDS011;6674;49.152;11.918;2022-08-21T03:21:04;2.07;;;1.80;;
13218;SDS011;6674;49.152;11.918;2022-08-21T03:23:33;9.27;;;3.30;;
13218;SDS011;6674;49.152;11.918;2022-08-21T03:25:59;34.37;;;3.83;;
13218;SDS011;6674;49.152;11.918;2022-08-21T03:28:26;7.77;;;3.00;;
13218;SDS011;6674;49.152;11.918;2022-08-21T03:30:59;247.27;;;12.50;;
13218;SDS011;6674;49.152;11.918;2022-08-21T03:33:26;20.93;;;3.30;;
13218;SDS011;6674;49.152;11.918;2022-08-21T03:35:55;195.83;;;9.50;;
13218;SDS011;6674;49.152;11.918;2022-08-21T03:38:26;2.40;;;2.20;;
13218;SDS011;6674;49.152;11.918;2022-08-21T03:40:55;168.93;;;9.10;;
13218;SDS011;6674;49.152;11.918;2022-08-21T03:43:34;104.93;;;7.70;;
13218;SDS011;6674;49.152;11.918;2022-08-21T03:46:01;140.90;;;8.70;;
13218;SDS011;6674;49.152;11.918;2022-08-21T03:48:29;5.10;;;2.40;;
13218;SDS011;6674;49.152;11.918;2022-08-21T03:50:56;3.10;;;2.20;;
13218;SDS011;6674;49.152;11.918;2022-08-21T03:53:22;2.10;;;2.00;;
13218;SDS011;6674;49.152;11.918;2022-08-21T03:55:50;1.40;;;1.40;;
13218;SDS011;6674;49.152;11.918;2022-08-21T03:58:22;1.60;;;1.60;;
13218;SDS011;6674;49.152;11.918;2022-08-21T04:00:51;1.40;;;1.40;;
13218;SDS011;6674;49.152;11.918;2022-08-21T04:03:21;1.90;;;1.80;;
13218;SDS011;6674;49.152;11.918;2022-08-21T04:05:48;1.00;;;1.00;;
13218;SDS011;6674;49.152;11.918;2022-08-21T04:08:16;0.83;;;0.83;;
13218;SDS011;6674;49.152;11.918;2022-08-21T04:10:44;1.13;;;1.13;;
13218;SDS011;6674;49.152;11.918;2022-08-21T04:13:12;2.00;;;1.90;;
13218;SDS011;6674;49.152;11.918;2022-08-21T04:15:41;1.10;;;1.10;;
13218;SDS011;6674;49.152;11.918;2022-08-21T04:18:08;1.10;;;1.10;;
13218;SDS011;6674;49.152;11.918;2022-08-21T04:20:37;0.90;;;0.90;;
13218;SDS011;6674;49.152;11.918;2022-08-21T04:23:05;0.80;;;0.80;;
13218;SDS011;6674;49.152;11.918;2022-08-21T04:25:32;2.70;;;2.60;;
13218;SDS011;6674;49.152;11.918;2022-08-21T04:27:59;2.20;;;2.10;;
13218;SDS011;6674;49.152;11.918;2022-08-21T04:30:27;2.27;;;2.17;;
13218;SDS011;6674;49.152;11.918;2022-08-21T04:32:55;1.80;;;1.70;;
13218;SDS011;6674;49.152;11.918;2022-08-21T04:35:23;1.50;;;1.50;;
13218;SDS011;6674;49.152;11.918;2022-08-21T04:37:51;1.87;;;1.77;;
13218;SDS011;6674;49.152;11.918;2022-08-21T04:40:18;2.07;;;1.97;;
13218;SDS011;6674;49.152;11.918;2022-08-21T04:42:47;2.00;;;1.90;;
13218;SDS011;6674;49.152;11.918;2022-08-21T04:45:16;1.80;;;1.70;;
13218;SDS011;6674;49.152;11.918;2022-08-21T04:47:45;10.10;;;2.50;;
13218;SDS011;6674;49.152;11.918;2022-08-21T04:50:13;2.17;;;1.77;;
13218;SDS011;6674;49.152;11.918;2022-08-21T04:52:39;2.10;;;2.00;;
13218;SDS011;6674;49.152;11.918;2022-08-21T04:55:06;2.20;;;2.10;;
13218;SDS011;6674;49.152;11.918;2022-08-21T04:57:33;3.40;;;3.10;;
13218;SDS011;6674;49.152;11.918;2022-08-21T05:00:00;3.80;;;3.50;;
13218;SDS011;6674;49.152;11.918;2022-08-21T05:02:28;3.20;;;3.00;;
13218;SDS011;6674;49.152;11.918;2022-08-21T05:04:57;3.30;;;3.10;;
13218;SDS011;6674;49.152;11.918;2022-08-21T05:07:26;3.00;;;2.80;;
13218;SDS011;6674;49.152;11.918;2022-08-21T05:09:55;2.40;;;2.30;;
13218;SDS011;6674;49.152;11.918;2022-08-21T05:12:22;2.10;;;2.00;;
13218;SDS011;6674;49.152;11.918;2022-08-21T05:14:50;1.20;;;1.20;;
13218;SDS011;6674;49.152;11.918;2022-08-21T05:17:16;1.47;;;1.47;;
13218;SDS011;6674;49.152;11.918;2022-08-21T05:19:43;1.00;;;1.00;;
13218;SDS011;6674;49.152;11.918;2022-08-21T05:22:09;1.30;;;1.30;;
13218;SDS011;6674;49.152;11.918;2022-08-21T05:24:37;1.73;;;1.63;;
13218;SDS011;6674;49.152;11.918;2022-08-21T05:27:04;1.90;;;1.80;;
13218;SDS011;6674;49.152;11.918;2022-08-21T05:29:32;1.80;;;1.70;;
13218;SDS011;6674;49.152;11.918;2022-08-21T05:31:58;1.40;;;1.40;;
13218;SDS011;6674;49.152;11.918;2022-08-21T05:34:25;1.30;;;1.30;;
13218;SDS011;6674;49.152;11.918;2022-08-21T05:36:51;1.60;;;1.60;;
13218;SDS011;6674;49.152;11.918;2022-08-21T05:39:18;1.40;;;1.40;;
13218;SDS011;6674;49.152;11.918;2022-08-21T05:41:46;1.10;;;1.10;;
13218;SDS011;6674;49.152;11.918;2022-08-21T05:44:12;1.37;;;1.37;;
13218;SDS011;6674;49.152;11.918;2022-08-21T05:46:40;0.80;;;0.80;;
13218;SDS011;6674;49.152;11.918;2022-08-21T05:49:07;1.13;;;1.13;;
13218;SDS011;6674;49.152;11.918;2022-08-21T05:51:33;1.20;;;1.10;;
13218;SDS011;6674;49.152;11.918;2022-08-21T05:54:00;0.93;;;0.93;;
13218;SDS011;6674;49.152;11.918;2022-08-21T05:56:26;1.80;;;1.70;;
13218;SDS011;6674;49.152;11.918;2022-08-21T05:58:54;1.20;;;1.20;;
13218;SDS011;6674;49.152;11.918;2022-08-21T06:01:22;1.90;;;1.80;;
13218;SDS011;6674;49.152;11.918;2022-08-21T06:03:48;1.30;;;1.30;;
13218;SDS011;6674;49.152;11.918;2022-08-21T06:06:15;1.73;;;1.63;;
13218;SDS011;6674;49.152;11.918;2022-08-21T06:08:42;3.17;;;2.97;;
13218;SDS011;6674;49.152;11.918;2022-08-21T06:11:12;2.20;;;2.10;;
13218;SDS011;6674;49.152;11.918;2022-08-21T06:13:39;1.60;;;1.50;;
13218;SDS011;6674;49.152;11.918;2022-08-21T06:16:08;1.27;;;1.27;;
13218;SDS011;6674;49.152;11.918;2022-08-21T06:18:41;1.27;;;1.27;;
13218;SDS011;6674;49.152;11.918;2022-08-21T06:21:10;1.70;;;1.60;;
13218;SDS011;6674;49.152;11.918;2022-08-21T06:23:38;1.20;;;1.20;;
13218;SDS011;6674;49.152;11.918;2022-08-21T06:26:06;1.63;;;1.63;;
13218;SDS011;6674;49.152;11.918;2022-08-21T06:28:34;1.70;;;1.60;;
13218;SDS011;6674;49.152;11.918;2022-08-21T06:31:10;1.87;;;1.77;;
13218;SDS011;6674;49.152;11.918;2022-08-21T06:33:38;2.23;;;2.13;;
13218;SDS011;6674;49.152;11.918;2022-08-21T06:36:05;2.77;;;2.57;;
13218;SDS011;6674;49.152;11.918;2022-08-21T06:38:32;3.30;;;2.90;;
13218;SDS011;6674;49.152;11.918;2022-08-21T06:40:59;14.57;;;4.00;;
13218;SDS011;6674;49.152;11.918;2022-08-21T06:43:27;3.23;;;3.03;;
13218;SDS011;6674;49.152;11.918;2022-08-21T06:45:53;3.50;;;3.30;;
13218;SDS011;6674;49.152;11.918;2022-08-21T06:48:21;3.20;;;3.00;;
13218;SDS011;6674;49.152;11.918;2022-08-21T06:50:48;3.90;;;3.60;;
13218;SDS011;6674;49.152;11.918;2022-08-21T06:53:16;3.53;;;3.33;;
13218;SDS011;6674;49.152;11.918;2022-08-21T06:55:44;4.00;;;3.60;;
13218;SDS011;6674;49.152;11.918;2022-08-21T06:58:11;3.30;;;3.10;;
13218;SDS011;6674;49.152;11.918;2022-08-21T07:00:38;14.97;;;6.40;;
13218;SDS011;6674;49.152;11.918;2022-08-21T07:03:06;4.33;;;4.00;;
13218;SDS011;6674;49.152;11.918;2022-08-21T07:05:35;5.40;;;5.00;;
13218;SDS011;6674;49.152;11.918;2022-08-21T07:08:01;4.30;;;4.00;;
13218;SDS011;6674;49.152;11.918;2022-08-21T07:10:28;6.73;;;6.23;;
13218;SDS011;6674;49.152;11.918;2022-08-21T07:12:55;4.23;;;3.93;;
13218;SDS011;6674;49.152;11.918;2022-08-21T07:15:22;5.07;;;4.67;;
13218;SDS011;6674;49.152;11.918;2022-08-21T07:17:48;4.87;;;4.47;;
13218;SDS011;6674;49.152;11.918;2022-08-21T07:20:15;6.17;;;5.67;;
13218;SDS011;6674;49.152;11.918;2022-08-21T07:22:44;6.10;;;5.60;;
13218;SDS011;6674;49.152;11.918;2022-08-21T07:25:11;6.63;;;6.13;;
13218;SDS011;6674;49.152;11.918;2022-08-21T07:27:39;5.50;;;5.00;;
13218;SDS011;6674;49.152;11.918;2022-08-21T07:30:06;4.63;;;4.23;;
13218;SDS011;6674;49.152;11.918;2022-08-21T07:32:34;4.20;;;3.90;;
13218;SDS011;6674;49.152;11.918;2022-08-21T07:35:01;5.60;;;5.20;;
13218;SDS011;6674;49.152;11.918;2022-08-21T07:37:28;6.70;;;6.20;;
13218;SDS011;6674;49.152;11.918;2022-08-21T07:39:56;5.90;;;5.40;;
13218;SDS011;6674;49.152;11.918;2022-08-21T07:42:22;6.50;;;6.00;;
13218;SDS011;6674;49.152;11.918;2022-08-21T07:44:49;5.30;;;4.90;;
13218;SDS011;6674;49.152;11.918;2022-08-21T07:47:16;6.40;;;5.90;;
13218;SDS011;6674;49.152;11.918;2022-08-21T07:49:42;4.87;;;4.57;;
13218;SDS011;6674;49.152;11.918;2022-08-21T07:52:10;6.20;;;5.70;;
13218;SDS011;6674;49.152;11.918;2022-08-21T07:54:36;5.33;;;4.93;;
13218;SDS011;6674;49.152;11.918;2022-08-21T07:57:06;5.50;;;5.10;;
13218;SDS011;6674;49.152;11.918;2022-08-21T07:59:33;7.90;;;7.20;;
13218;SDS011;6674;49.152;11.918;2022-08-21T08:02:00;6.67;;;6.17;;
13218;SDS011;6674;49.152;11.918;2022-08-21T08:04:26;5.87;;;5.37;;
13218;SDS011;6674;49.152;11.918;2022-08-21T08:06:53;6.87;;;6.27;;
13218;SDS011;6674;49.152;11.918;2022-08-21T08:09:19;7.33;;;6.73;;
13218;SDS011;6674;49.152;11.918;2022-08-21T08:11:46;7.33;;;6.73;;
13218;SDS011;6674;49.152;11.918;2022-08-21T08:14:14;10.83;;;9.93;;
13218;SDS011;6674;49.152;11.918;2022-08-21T08:16:42;8.83;;;8.03;;
13218;SDS011;6674;49.152;11.918;2022-08-21T08:19:09;10.60;;;9.70;;
13218;SDS011;6674;49.152;11.918;2022-08-21T08:21:35;8.27;;;7.57;;
13218;SDS011;6674;49.152;11.918;2022-08-21T08:24:03;7.90;;;7.30;;
13218;SDS011;6674;49.152;11.918;2022-08-21T08:26:31;8.90;;;8.03;;
13218;SDS011;6674;49.152;11.918;2022-08-21T08:28:57;10.60;;;9.70;;
13218;SDS011;6674;49.152;11.918;2022-08-21T08:31:27;12.97;;;11.87;;
13218;SDS011;6674;49.152;11.918;2022-08-21T08:33:53;10.97;;;10.07;;
13218;SDS011;6674;49.152;11.918;2022-08-21T08:36:20;9.13;;;8.43;;
13218;SDS011;6674;49.152;11.918;2022-08-21T08:38:58;8.83;;;8.13;;
13218;SDS011;6674;49.152;11.918;2022-08-21T08:41:25;12.53;;;11.43;;
13218;SDS011;6674;49.152;11.918;2022-08-21T08:43:53;11.10;;;10.20;;
13218;SDS011;6674;49.152;11.918;2022-08-21T08:46:24;11.13;;;10.27;;
13218;SDS011;6674;49.152;11.918;2022-08-21T08:49:09;13.37;;;12.17;;
13218;SDS011;6674;49.152;11.918;2022-08-21T08:51:42;10.37;;;9.47;;
13218;SDS011;6674;49.152;11.918;2022-08-21T08:54:12;11.77;;;10.73;;
13218;SDS011;6674;49.152;11.918;2022-08-21T08:56:43;11.23;;;10.23;;
13218;SDS011;6674;49.152;11.918;2022-08-21T08:59:13;10.03;;;9.17;;
13218;SDS011;6674;49.152;11.918;2022-08-21T09:01:45;12.33;;;11.27;;
13218;SDS011;6674;49.152;11.918;2022-08-21T09:04:12;12.10;;;11.10;;
13218;SDS011;6674;49.152;11.918;2022-08-21T09:06:49;12.20;;;11.10;;
13218;SDS011;6674;49.152;11.918;2022-08-21T09:09:25;13.17;;;12.07;;
13218;SDS011;6674;49.152;11.918;2022-08-21T09:12:04;8.83;;;8.13;;
13218;SDS011;6674;49.152;11.918;2022-08-21T09:14:39;10.67;;;9.77;;
13218;SDS011;6674;49.152;11.918;2022-08-21T09:17:19;9.90;;;9.07;;
13218;SDS011;6674;49.152;11.918;2022-08-21T09:20:03;10.60;;;9.70;;
13218;SDS011;6674;49.152;11.918;2022-08-21T09:22:40;11.67;;;10.57;;
13218;SDS011;6674;49.152;11.918;2022-08-21T09:25:15;10.83;;;9.93;;
13218;SDS011;6674;49.152;11.918;2022-08-21T09:27:46;12.53;;;11.53;;
13218;SDS011;6674;49.152;11.918;2022-08-21T09:30:14;10.17;;;9.37;;
13218;SDS011;6674;49.152;11.918;2022-08-21T09:32:42;13.83;;;12.63;;
13218;SDS011;6674;49.152;11.918;2022-08-21T09:35:10;12.33;;;11.33;;
13218;SDS011;6674;49.152;11.918;2022-08-21T09:37:47;15.13;;;13.83;;
13218;SDS011;6674;49.152;11.918;2022-08-21T09:40:23;10.60;;;9.70;;
13218;SDS011;6674;49.152;11.918;2022-08-21T09:42:56;11.07;;;10.17;;
13218;SDS011;6674;49.152;11.918;2022-08-21T09:45:24;10.90;;;10.00;;
13218;SDS011;6674;49.152;11.918;2022-08-21T09:47:52;10.67;;;9.87;;
13218;SDS011;6674;49.152;11.918;2022-08-21T09:50:20;10.23;;;9.40;;
13218;SDS011;6674;49.152;11.918;2022-08-21T09:52:49;8.87;;;8.17;;
13218;SDS011;6674;49.152;11.918;2022-08-21T09:55:20;9.77;;;8.97;;
13218;SDS011;6674;49.152;11.918;2022-08-21T09:58:09;11.00;;;10.10;;
13218;SDS011;6674;49.152;11.918;2022-08-21T10:00:36;11.03;;;10.13;;
13218;SDS011;6674;49.152;11.918;2022-08-21T10:03:09;10.70;;;9.80;;
13218;SDS011;6674;49.152;11.918;2022-08-21T10:05:38;11.50;;;10.50;;
13218;SDS011;6674;49.152;11.918;2022-08-21T10:08:15;9.37;;;8.67;;
13218;SDS011;6674;49.152;11.918;2022-08-21T10:10:44;11.00;;;10.10;;
13218;SDS011;6674;49.152;11.918;2022-08-21T10:13:12;12.20;;;11.20;;
13218;SDS011;6674;49.152;11.918;2022-08-21T10:15:47;13.40;;;12.30;;
13218;SDS011;6674;49.152;11.918;2022-08-21T10:18:24;12.40;;;11.40;;
13218;SDS011;6674;49.152;11.918;2022-08-21T10:20:54;11.57;;;10.67;;
13218;SDS011;6674;49.152;11.918;2022-08-21T10:23:35;12.23;;;11.33;;
13218;SDS011;6674;49.152;11.918;2022-08-21T10:26:11;11.70;;;10.80;;
13218;SDS011;6674;49.152;11.918;2022-08-21T10:28:47;11.47;;;10.57;;
13218;SDS011;6674;49.152;11.918;2022-08-21T10:31:24;10.40;;;9.57;;
13218;SDS011;6674;49.152;11.918;2022-08-21T10:34:15;11.70;;;10.80;;
13218;SDS011;6674;49.152;11.918;2022-08-21T10:36:57;11.23;;;10.23;;
13218;SDS011;6674;49.152;11.918;2022-08-21T10:39:33;11.07;;;10.17;;
13218;SDS011;6674;49.152;11.918;2022-08-21T10:42:11;12.27;;;11.33;;
13218;SDS011;6674;49.152;11.918;2022-08-21T10:44:49;12.20;;;11.30;;
13218;SDS011;6674;49.152;11.918;2022-08-21T10:47:24;11.93;;;11.03;;
13218;SDS011;6674;49.152;11.918;2022-08-21T10:49:59;11.47;;;10.47;;
13218;SDS011;6674;49.152;11.918;2022-08-21T10:52:36;10.57;;;9.77;;
13218;SDS011;6674;49.152;11.918;2022-08-21T10:55:20;10.83;;;9.93;;
13218;SDS011;6674;49.152;11.918;2022-08-21T10:57:49;8.87;;;8.17;;
13218;SDS011;6674;49.152;11.918;2022-08-21T11:00:21;12.33;;;11.33;;
13218;SDS011;6674;49.152;11.918;2022-08-21T11:02:50;10.17;;;9.47;;
13218;SDS011;6674;49.152;11.918;2022-08-21T11:05:25;11.37;;;10.47;;
13218;SDS011;6674;49.152;11.918;2022-08-21T11:07:57;10.83;;;9.93;;
13218;SDS011;6674;49.152;11.918;2022-08-21T11:10:29;12.03;;;11.03;;
13218;SDS011;6674;49.152;11.918;2022-08-21T11:13:04;13.73;;;12.57;;
13218;SDS011;6674;49.152;11.918;2022-08-21T11:15:36;11.33;;;10.43;;
13218;SDS011;6674;49.152;11.918;2022-08-21T11:18:21;11.60;;;10.67;;
13218;SDS011;6674;49.152;11.918;2022-08-21T11:20:54;15.03;;;13.83;;
13218;SDS011;6674;49.152;11.918;2022-08-21T11:23:29;12.07;;;11.10;;
13218;SDS011;6674;49.152;11.918;2022-08-21T11:26:04;13.67;;;12.57;;
13218;SDS011;6674;49.152;11.918;2022-08-21T11:28:35;11.53;;;10.63;;
13218;SDS011;6674;49.152;11.918;2022-08-21T11:31:10;13.47;;;12.37;;
13218;SDS011;6674;49.152;11.918;2022-08-21T11:33:47;10.87;;;9.97;;
13218;SDS011;6674;49.152;11.918;2022-08-21T11:36:25;13.67;;;12.37;;
13218;SDS011;6674;49.152;11.918;2022-08-21T11:39:01;11.70;;;10.80;;
13218;SDS011;6674;49.152;11.918;2022-08-21T11:41:37;11.47;;;10.57;;
13218;SDS011;6674;49.152;11.918;2022-08-21T11:44:09;12.50;;;11.50;;
13218;SDS011;6674;49.152;11.918;2022-08-21T11:46:44;11.23;;;10.33;;
13218;SDS011;6674;49.152;11.918;2022-08-21T11:49:26;14.60;;;13.30;;
13218;SDS011;6674;49.152;11.918;2022-08-21T11:52:07;14.03;;;12.93;;
13218;SDS011;6674;49.152;11.918;2022-08-21T11:54:41;12.70;;;11.60;;
13218;SDS011;6674;49.152;11.918;2022-08-21T11:57:14;10.03;;;9.23;;
13218;SDS011;6674;49.152;11.918;2022-08-21T11:59:47;9.27;;;8.57;;
13218;SDS011;6674;49.152;11.918;2022-08-21T12:02:18;12.27;;;11.27;;
13218;SDS011;6674;49.152;11.918;2022-08-21T12:04:48;9.70;;;8.90;;
13218;SDS011;6674;49.152;11.918;2022-08-21T12:07:29;11.30;;;10.40;;
13218;SDS011;6674;49.152;11.918;2022-08-21T12:09:59;10.27;;;9.47;;
13218;SDS011;6674;49.152;11.918;2022-08-21T12:12:27;12.33;;;11.33;;
13218;SDS011;6674;49.152;11.918;2022-08-21T12:15:12;10.47;;;9.67;;
13218;SDS011;6674;49.152;11.918;2022-08-21T12:17:54;9.83;;;9.03;;
13218;SDS011;6674;49.152;11.918;2022-08-21T12:20:26;8.40;;;7.70;;
13218;SDS011;6674;49.152;11.918;2022-08-21T12:23:05;7.03;;;6.53;;
13218;SDS011;6674;49.152;11.918;2022-08-21T12:25:42;9.07;;;8.37;;
13218;SDS011;6674;49.152;11.918;2022-08-21T12:28:11;8.80;;;8.10;;
13218;SDS011;6674;49.152;11.918;2022-08-21T12:30:41;7.83;;;7.23;;
13218;SDS011;6674;49.152;11.918;2022-08-21T12:33:18;7.80;;;7.20;;
13218;SDS011;6674;49.152;11.918;2022-08-21T12:35:49;8.37;;;7.77;;
13218;SDS011;6674;49.152;11.918;2022-08-21T12:38:20;8.13;;;7.53;;
13218;SDS011;6674;49.152;11.918;2022-08-21T12:40:51;7.13;;;6.63;;
13218;SDS011;6674;49.152;11.918;2022-08-21T12:43:21;7.90;;;7.33;;
13218;SDS011;6674;49.152;11.918;2022-08-21T12:45:52;7.50;;;7.00;;
13218;SDS011;6674;49.152;11.918;2022-08-21T12:48:20;5.97;;;5.57;;
13218;SDS011;6674;49.152;11.918;2022-08-21T12:50:50;5.77;;;5.37;;
13218;SDS011;6674;49.152;11.918;2022-08-21T12:53:24;5.73;;;5.33;;
13218;SDS011;6674;49.152;11.918;2022-08-21T12:55:55;5.50;;;5.10;;
13218;SDS011;6674;49.152;11.918;2022-08-21T12:58:26;6.13;;;5.67;;
13218;SDS011;6674;49.152;11.918;2022-08-21T13:00:54;5.13;;;4.73;;
13218;SDS011;6674;49.152;11.918;2022-08-21T13:03:24;4.90;;;4.60;;
13218;SDS011;6674;49.152;11.918;2022-08-21T13:05:50;6.10;;;5.70;;
13218;SDS011;6674;49.152;11.918;2022-08-21T13:08:19;4.80;;;4.50;;
13218;SDS011;6674;49.152;11.918;2022-08-21T13:10:55;4.93;;;4.63;;
13218;SDS011;6674;49.152;11.918;2022-08-21T13:13:24;5.67;;;5.17;;
13218;SDS011;6674;49.152;11.918;2022-08-21T13:15:56;5.40;;;4.93;;
13218;SDS011;6674;49.152;11.918;2022-08-21T13:18:26;5.23;;;4.83;;
13218;SDS011;6674;49.152;11.918;2022-08-21T13:21:02;4.60;;;4.30;;
13218;SDS011;6674;49.152;11.918;2022-08-21T13:23:31;4.40;;;4.10;;
13218;SDS011;6674;49.152;11.918;2022-08-21T13:26:00;4.97;;;4.67;;
13218;SDS011;6674;49.152;11.918;2022-08-21T13:28:32;4.30;;;4.00;;
13218;SDS011;6674;49.152;11.918;2022-08-21T13:31:01;5.00;;;4.60;;
13218;SDS011;6674;49.152;11.918;2022-08-21T13:33:29;4.80;;;4.50;;
13218;SDS011;6674;49.152;11.918;2022-08-21T13:35:58;4.80;;;4.40;;
13218;SDS011;6674;49.152;11.918;2022-08-21T13:38:32;4.80;;;4.50;;
13218;SDS011;6674;49.152;11.918;2022-08-21T13:41:04;4.83;;;4.53;;
13218;SDS011;6674;49.152;11.918;2022-08-21T13:43:35;5.20;;;4.80;;
13218;SDS011;6674;49.152;11.918;2022-08-21T13:46:06;4.60;;;4.30;;
13218;SDS011;6674;49.152;11.918;2022-08-21T13:48:36;3.90;;;3.60;;
13218;SDS011;6674;49.152;11.918;2022-08-21T13:51:03;4.60;;;4.30;;
13218;SDS011;6674;49.152;11.918;2022-08-21T13:53:32;4.23;;;3.93;;
13218;SDS011;6674;49.152;11.918;2022-08-21T13:56:01;4.30;;;4.00;;
13218;SDS011;6674;49.152;11.918;2022-08-21T13:58:41;4.57;;;4.27;;
13218;SDS011;6674;49.152;11.918;2022-08-21T14:01:17;4.50;;;4.20;;
13218;SDS011;6674;49.152;11.918;2022-08-21T14:03:45;5.13;;;4.73;;
13218;SDS011;6674;49.152;11.918;2022-08-21T14:06:16;4.50;;;4.20;;
13218;SDS011;6674;49.152;11.918;2022-08-21T14:08:49;4.50;;;4.20;;
13218;SDS011;6674;49.152;11.918;2022-08-21T14:11:19;4.10;;;3.80;;
13218;SDS011;6674;49.152;11.918;2022-08-21T14:13:47;4.07;;;3.77;;
13218;SDS011;6674;49.152;11.918;2022-08-21T14:16:19;4.47;;;4.17;;
13218;SDS011;6674;49.152;11.918;2022-08-21T14:18:48;3.90;;;3.70;;
13218;SDS011;6674;49.152;11.918;2022-08-21T14:24:08;3.13;;;2.93;;
13218;SDS011;6674;49.152;11.918;2022-08-21T14:26:42;3.60;;;3.40;;
13218;SDS011;6674;49.152;11.918;2022-08-21T14:29:13;3.37;;;3.17;;
13218;SDS011;6674;49.152;11.918;2022-08-21T14:31:41;3.90;;;3.60;;
13218;SDS011;6674;49.152;11.918;2022-08-21T14:34:10;3.30;;;3.10;;
13218;SDS011;6674;49.152;11.918;2022-08-21T14:36:40;3.53;;;3.30;;
13218;SDS011;6674;49.152;11.918;2022-08-21T14:39:06;3.70;;;3.40;;
13218;SDS011;6674;49.152;11.918;2022-08-21T14:41:34;3.17;;;2.97;;
13218;SDS011;6674;49.152;11.918;2022-08-21T14:44:03;3.43;;;3.23;;
13218;SDS011;6674;49.152;11.918;2022-08-21T14:46:31;3.17;;;2.97;;
13218;SDS011;6674;49.152;11.918;2022-08-21T14:48:59;3.17;;;2.97;;
13218;SDS011;6674;49.152;11.918;2022-08-21T14:51:28;3.07;;;2.87;;
13218;SDS011;6674;49.152;11.918;2022-08-21T14:53:54;3.37;;;3.17;;
13218;SDS011;6674;49.152;11.918;2022-08-21T14:56:21;3.20;;;2.90;;
13218;SDS011;6674;49.152;11.918;2022-08-21T14:58:50;3.13;;;2.93;;